Terminal Aerodrome Forecast
Issued by NWS

Home | Current Version | Previous Version | Text Only | Print | Product List | Glossary On
Versions: 1 2 3 4 5 6 7 8 9 10 11 12 13
000
FTUS43 KFGF 231100
TAFBJI
TAF
KBJI 231120Z 2312/2412 12010KT P6SM BKN250
      TEMPO 2316/2318 BKN080
     FM231800 12016KT P6SM OVC080
      TEMPO 2320/2324 5SM -RA BR OVC040
     FM240000 12015KT 3SM -RA BR OVC025=

USA.gov is the U.S. government's official web portal to all federal, state and local government web resources and services.